sensor_id;sensor_type;location;lat;lon;timestamp;temperature;humidity
46037;DHT22;31769;49.304;8.428;2023-03-11T00:01:45;3.60;99.90
46037;DHT22;31769;49.304;8.428;2023-03-11T00:04:46;3.60;99.90
46037;DHT22;31769;49.304;8.428;2023-03-11T00:07:46;3.60;99.90
46037;DHT22;31769;49.304;8.428;2023-03-11T00:10:51;3.50;99.90
46037;DHT22;31769;49.304;8.428;2023-03-11T00:13:52;3.50;99.90
46037;DHT22;31769;49.304;8.428;2023-03-11T00:16:52;3.40;99.90
46037;DHT22;31769;49.304;8.428;2023-03-11T00:19:53;3.40;99.90
46037;DHT22;31769;49.304;8.428;2023-03-11T00:22:54;3.30;99.90
46037;DHT22;31769;49.304;8.428;2023-03-11T00:25:55;3.30;99.90
46037;DHT22;31769;49.304;8.428;2023-03-11T00:28:56;3.30;99.90
46037;DHT22;31769;49.304;8.428;2023-03-11T00:31:57;3.30;99.90
46037;DHT22;31769;49.304;8.428;2023-03-11T00:34:57;3.30;99.90
46037;DHT22;31769;49.304;8.428;2023-03-11T00:38:01;3.20;99.90
46037;DHT22;31769;49.304;8.428;2023-03-11T00:41:02;3.20;99.90
46037;DHT22;31769;49.304;8.428;2023-03-11T00:44:05;3.10;99.90
46037;DHT22;31769;49.304;8.428;2023-03-11T00:47:05;3.10;99.90
46037;DHT22;31769;49.304;8.428;2023-03-11T00:50:08;3.10;99.90
46037;DHT22;31769;49.304;8.428;2023-03-11T00:53:11;3.20;99.90
46037;DHT22;31769;49.304;8.428;2023-03-11T00:56:14;3.10;99.90
46037;DHT22;31769;49.304;8.428;2023-03-11T00:59:15;3.10;99.90
46037;DHT22;31769;49.304;8.428;2023-03-11T01:02:16;3.10;99.90
46037;DHT22;31769;49.304;8.428;2023-03-11T01:05:23;3.00;99.90
46037;DHT22;31769;49.304;8.428;2023-03-11T01:08:24;3.00;99.90
46037;DHT22;31769;49.304;8.428;2023-03-11T01:11:28;3.00;99.90
46037;DHT22;31769;49.304;8.428;2023-03-11T01:14:28;2.90;99.90
46037;DHT22;31769;49.304;8.428;2023-03-11T01:17:29;2.80;99.90
46037;DHT22;31769;49.304;8.428;2023-03-11T01:20:30;2.70;99.90
46037;DHT22;31769;49.304;8.428;2023-03-11T01:23:31;2.60;99.90
46037;DHT22;31769;49.304;8.428;2023-03-11T01:26:31;2.60;99.90
46037;DHT22;31769;49.304;8.428;2023-03-11T01:29:32;2.60;99.90
46037;DHT22;31769;49.304;8.428;2023-03-11T01:32:33;2.60;99.90
46037;DHT22;31769;49.304;8.428;2023-03-11T01:35:33;2.60;99.90
46037;DHT22;31769;49.304;8.428;2023-03-11T01:38:34;2.60;99.90
46037;DHT22;31769;49.304;8.428;2023-03-11T01:41:35;2.60;99.90
46037;DHT22;31769;49.304;8.428;2023-03-11T01:44:36;2.60;99.90
46037;DHT22;31769;49.304;8.428;2023-03-11T01:47:39;2.60;99.90
46037;DHT22;31769;49.304;8.428;2023-03-11T01:50:44;2.60;99.90
46037;DHT22;31769;49.304;8.428;2023-03-11T01:53:46;2.50;99.90
46037;DHT22;31769;49.304;8.428;2023-03-11T01:56:47;2.50;99.90
46037;DHT22;31769;49.304;8.428;2023-03-11T01:59:52;2.50;99.90
46037;DHT22;31769;49.304;8.428;2023-03-11T02:02:57;2.40;99.90
46037;DHT22;31769;49.304;8.428;2023-03-11T02:06:00;2.30;99.90
46037;DHT22;31769;49.304;8.428;2023-03-11T02:09:01;2.30;99.90
46037;DHT22;31769;49.304;8.428;2023-03-11T02:12:03;2.30;99.90
46037;DHT22;31769;49.304;8.428;2023-03-11T02:15:06;2.20;99.90
46037;DHT22;31769;49.304;8.428;2023-03-11T02:18:11;2.20;99.90
46037;DHT22;31769;49.304;8.428;2023-03-11T02:21:25;2.10;99.90
46037;DHT22;31769;49.304;8.428;2023-03-11T02:24:44;2.10;99.90
46037;DHT22;31769;49.304;8.428;2023-03-11T02:27:48;2.10;99.90
46037;DHT22;31769;49.304;8.428;2023-03-11T02:30:52;2.10;99.90
46037;DHT22;31769;49.304;8.428;2023-03-11T02:33:57;2.10;99.90
46037;DHT22;31769;49.304;8.428;2023-03-11T02:37:00;2.00;99.90
46037;DHT22;31769;49.304;8.428;2023-03-11T02:43:37;1.90;99.90
46037;DHT22;31769;49.304;8.428;2023-03-11T02:46:40;1.90;99.90
46037;DHT22;31769;49.304;8.428;2023-03-11T02:49:43;1.80;99.90
46037;DHT22;31769;49.304;8.428;2023-03-11T02:52:46;1.80;99.90
46037;DHT22;31769;49.304;8.428;2023-03-11T02:55:47;1.80;99.90
46037;DHT22;31769;49.304;8.428;2023-03-11T02:58:48;1.80;99.90
46037;DHT22;31769;49.304;8.428;2023-03-11T03:01:49;1.70;99.90
46037;DHT22;31769;49.304;8.428;2023-03-11T03:04:50;1.70;99.90
46037;DHT22;31769;49.304;8.428;2023-03-11T03:07:50;1.70;99.90
46037;DHT22;31769;49.304;8.428;2023-03-11T03:10:52;1.70;99.90
46037;DHT22;31769;49.304;8.428;2023-03-11T03:13:53;1.60;99.90
46037;DHT22;31769;49.304;8.428;2023-03-11T03:16:54;1.60;99.90
46037;DHT22;31769;49.304;8.428;2023-03-11T03:19:54;1.50;99.90
46037;DHT22;31769;49.304;8.428;2023-03-11T03:22:55;1.50;99.90
46037;DHT22;31769;49.304;8.428;2023-03-11T03:26:01;1.50;99.90
46037;DHT22;31769;49.304;8.428;2023-03-11T03:29:04;1.40;99.90
46037;DHT22;31769;49.304;8.428;2023-03-11T03:32:05;1.40;99.90
46037;DHT22;31769;49.304;8.428;2023-03-11T03:35:07;1.40;99.90
46037;DHT22;31769;49.304;8.428;2023-03-11T03:38:26;1.40;99.90
46037;DHT22;31769;49.304;8.428;2023-03-11T03:41:27;1.40;99.90
46037;DHT22;31769;49.304;8.428;2023-03-11T03:44:28;1.40;99.90
46037;DHT22;31769;49.304;8.428;2023-03-11T03:47:31;1.40;99.90
46037;DHT22;31769;49.304;8.428;2023-03-11T03:50:32;1.40;99.90
46037;DHT22;31769;49.304;8.428;2023-03-11T03:53:34;1.40;99.90
46037;DHT22;31769;49.304;8.428;2023-03-11T03:56:36;1.30;99.90
46037;DHT22;31769;49.304;8.428;2023-03-11T03:59:37;1.30;99.90
46037;DHT22;31769;49.304;8.428;2023-03-11T04:02:38;1.30;99.90
46037;DHT22;31769;49.304;8.428;2023-03-11T04:05:39;1.20;99.90
46037;DHT22;31769;49.304;8.428;2023-03-11T04:08:40;1.30;99.90
46037;DHT22;31769;49.304;8.428;2023-03-11T04:11:42;1.30;99.90
46037;DHT22;31769;49.304;8.428;2023-03-11T04:14:44;1.40;99.90
46037;DHT22;31769;49.304;8.428;2023-03-11T04:17:45;1.40;99.90
46037;DHT22;31769;49.304;8.428;2023-03-11T04:20:47;1.30;99.90
46037;DHT22;31769;49.304;8.428;2023-03-11T04:23:48;1.30;99.90
46037;DHT22;31769;49.304;8.428;2023-03-11T04:26:52;1.40;99.90
46037;DHT22;31769;49.304;8.428;2023-03-11T04:29:53;1.30;99.90
46037;DHT22;31769;49.304;8.428;2023-03-11T04:32:54;1.30;99.90
46037;DHT22;31769;49.304;8.428;2023-03-11T04:35:56;1.30;99.90
46037;DHT22;31769;49.304;8.428;2023-03-11T04:38:57;1.30;99.90
46037;DHT22;31769;49.304;8.428;2023-03-11T04:41:59;1.20;99.90
46037;DHT22;31769;49.304;8.428;2023-03-11T04:45:01;1.20;99.90
46037;DHT22;31769;49.304;8.428;2023-03-11T04:48:04;1.20;99.90
46037;DHT22;31769;49.304;8.428;2023-03-11T04:51:06;1.20;99.90
46037;DHT22;31769;49.304;8.428;2023-03-11T04:54:07;1.10;99.90
46037;DHT22;31769;49.304;8.428;2023-03-11T04:57:08;1.10;99.90
46037;DHT22;31769;49.304;8.428;2023-03-11T05:00:11;1.10;99.90
46037;DHT22;31769;49.304;8.428;2023-03-11T05:03:15;1.10;99.90
46037;DHT22;31769;49.304;8.428;2023-03-11T05:06:16;1.10;99.90
46037;DHT22;31769;49.304;8.428;2023-03-11T05:09:17;1.10;99.90
46037;DHT22;31769;49.304;8.428;2023-03-11T05:12:18;1.00;99.90
46037;DHT22;31769;49.304;8.428;2023-03-11T05:15:23;1.00;99.90
46037;DHT22;31769;49.304;8.428;2023-03-11T05:18:24;0.90;99.90
46037;DHT22;31769;49.304;8.428;2023-03-11T05:21:25;0.90;99.90
46037;DHT22;31769;49.304;8.428;2023-03-11T05:24:27;0.90;99.90
46037;DHT22;31769;49.304;8.428;2023-03-11T05:27:28;0.90;99.90
46037;DHT22;31769;49.304;8.428;2023-03-11T05:30:30;0.80;99.90
46037;DHT22;31769;49.304;8.428;2023-03-11T05:33:32;0.70;99.90
46037;DHT22;31769;49.304;8.428;2023-03-11T05:36:35;0.80;99.90
46037;DHT22;31769;49.304;8.428;2023-03-11T05:39:36;0.80;99.90
46037;DHT22;31769;49.304;8.428;2023-03-11T05:42:37;0.80;99.90
46037;DHT22;31769;49.304;8.428;2023-03-11T05:45:41;0.80;99.90
46037;DHT22;31769;49.304;8.428;2023-03-11T05:48:42;0.80;99.90
46037;DHT22;31769;49.304;8.428;2023-03-11T05:51:43;0.80;99.90
46037;DHT22;31769;49.304;8.428;2023-03-11T05:54:48;1.30;99.90
46037;DHT22;31769;49.304;8.428;2023-03-11T05:57:51;1.80;99.90
46037;DHT22;31769;49.304;8.428;2023-03-11T06:00:52;0.80;99.90
46037;DHT22;31769;49.304;8.428;2023-03-11T06:03:52;0.80;99.90
46037;DHT22;31769;49.304;8.428;2023-03-11T06:06:53;0.70;99.90
46037;DHT22;31769;49.304;8.428;2023-03-11T06:09:57;0.90;99.90
46037;DHT22;31769;49.304;8.428;2023-03-11T06:12:57;0.70;99.90
46037;DHT22;31769;49.304;8.428;2023-03-11T06:16:11;0.90;99.90
46037;DHT22;31769;49.304;8.428;2023-03-11T06:19:12;1.00;99.90
46037;DHT22;31769;49.304;8.428;2023-03-11T06:22:16;1.10;99.90
46037;DHT22;31769;49.304;8.428;2023-03-11T06:25:17;1.10;99.90
46037;DHT22;31769;49.304;8.428;2023-03-11T06:28:20;1.80;99.90
46037;DHT22;31769;49.304;8.428;2023-03-11T06:31:23;1.20;99.90
46037;DHT22;31769;49.304;8.428;2023-03-11T06:34:25;1.30;99.90
46037;DHT22;31769;49.304;8.428;2023-03-11T06:37:29;1.30;99.90
46037;DHT22;31769;49.304;8.428;2023-03-11T06:40:30;1.40;99.90
46037;DHT22;31769;49.304;8.428;2023-03-11T06:43:32;1.40;99.90
46037;DHT22;31769;49.304;8.428;2023-03-11T06:46:33;1.50;99.90
46037;DHT22;31769;49.304;8.428;2023-03-11T06:49:34;1.50;99.90
46037;DHT22;31769;49.304;8.428;2023-03-11T06:52:36;1.60;99.90
46037;DHT22;31769;49.304;8.428;2023-03-11T06:55:37;1.70;99.90
46037;DHT22;31769;49.304;8.428;2023-03-11T06:58:39;1.80;99.90
46037;DHT22;31769;49.304;8.428;2023-03-11T07:01:41;1.90;99.90
46037;DHT22;31769;49.304;8.428;2023-03-11T07:04:43;1.90;99.90
46037;DHT22;31769;49.304;8.428;2023-03-11T07:07:43;2.00;99.90
46037;DHT22;31769;49.304;8.428;2023-03-11T07:10:45;2.20;99.90
46037;DHT22;31769;49.304;8.428;2023-03-11T07:13:46;2.20;99.90
46037;DHT22;31769;49.304;8.428;2023-03-11T07:16:47;2.20;99.90
46037;DHT22;31769;49.304;8.428;2023-03-11T07:20:03;2.30;99.90
46037;DHT22;31769;49.304;8.428;2023-03-11T07:23:04;2.40;99.90
46037;DHT22;31769;49.304;8.428;2023-03-11T07:26:07;2.50;99.90
46037;DHT22;31769;49.304;8.428;2023-03-11T07:29:08;2.60;99.90
46037;DHT22;31769;49.304;8.428;2023-03-11T07:32:09;2.70;99.90
46037;DHT22;31769;49.304;8.428;2023-03-11T07:35:10;2.70;99.90
46037;DHT22;31769;49.304;8.428;2023-03-11T07:38:11;2.80;99.90
46037;DHT22;31769;49.304;8.428;2023-03-11T07:41:12;2.90;99.90
46037;DHT22;31769;49.304;8.428;2023-03-11T07:44:14;3.00;99.90
46037;DHT22;31769;49.304;8.428;2023-03-11T07:47:15;3.10;99.90
46037;DHT22;31769;49.304;8.428;2023-03-11T07:50:16;3.20;99.90
46037;DHT22;31769;49.304;8.428;2023-03-11T07:53:16;3.30;99.90
46037;DHT22;31769;49.304;8.428;2023-03-11T07:56:18;3.50;99.90
46037;DHT22;31769;49.304;8.428;2023-03-11T07:59:19;3.70;99.90
46037;DHT22;31769;49.304;8.428;2023-03-11T08:02:20;3.70;99.90
46037;DHT22;31769;49.304;8.428;2023-03-11T08:05:20;3.80;99.90
46037;DHT22;31769;49.304;8.428;2023-03-11T08:08:21;3.90;99.90
46037;DHT22;31769;49.304;8.428;2023-03-11T08:11:23;4.00;99.90
46037;DHT22;31769;49.304;8.428;2023-03-11T08:14:23;4.00;99.90
46037;DHT22;31769;49.304;8.428;2023-03-11T08:17:24;4.10;99.90
46037;DHT22;31769;49.304;8.428;2023-03-11T08:20:25;4.20;99.90
46037;DHT22;31769;49.304;8.428;2023-03-11T08:23:26;4.20;99.90
46037;DHT22;31769;49.304;8.428;2023-03-11T08:26:26;4.30;99.90
46037;DHT22;31769;49.304;8.428;2023-03-11T08:29:27;4.40;99.90
46037;DHT22;31769;49.304;8.428;2023-03-11T08:32:28;4.40;99.90
46037;DHT22;31769;49.304;8.428;2023-03-11T08:35:31;4.40;99.90
46037;DHT22;31769;49.304;8.428;2023-03-11T08:38:32;4.50;99.90
46037;DHT22;31769;49.304;8.428;2023-03-11T08:41:33;4.50;99.90
46037;DHT22;31769;49.304;8.428;2023-03-11T08:44:33;4.60;99.90
46037;DHT22;31769;49.304;8.428;2023-03-11T08:47:35;4.70;99.90
46037;DHT22;31769;49.304;8.428;2023-03-11T08:50:39;4.70;99.90
46037;DHT22;31769;49.304;8.428;2023-03-11T08:53:40;4.70;99.90
46037;DHT22;31769;49.304;8.428;2023-03-11T08:56:41;4.80;99.90
46037;DHT22;31769;49.304;8.428;2023-03-11T08:59:41;4.90;99.90
46037;DHT22;31769;49.304;8.428;2023-03-11T09:02:42;5.10;99.90
46037;DHT22;31769;49.304;8.428;2023-03-11T09:05:43;5.10;99.90
46037;DHT22;31769;49.304;8.428;2023-03-11T09:08:44;5.10;99.90
46037;DHT22;31769;49.304;8.428;2023-03-11T09:11:46;5.10;99.90
46037;DHT22;31769;49.304;8.428;2023-03-11T09:14:47;5.20;99.90
46037;DHT22;31769;49.304;8.428;2023-03-11T09:17:48;5.30;99.90
46037;DHT22;31769;49.304;8.428;2023-03-11T09:20:49;5.40;99.80
46037;DHT22;31769;49.304;8.428;2023-03-11T09:23:50;5.30;99.90
46037;DHT22;31769;49.304;8.428;2023-03-11T09:26:50;5.30;98.70
46037;DHT22;31769;49.304;8.428;2023-03-11T09:29:51;5.50;98.00
46037;DHT22;31769;49.304;8.428;2023-03-11T09:32:52;5.70;93.60
46037;DHT22;31769;49.304;8.428;2023-03-11T09:35:53;5.70;93.00
46037;DHT22;31769;49.304;8.428;2023-03-11T09:38:53;5.60;94.10
46037;DHT22;31769;49.304;8.428;2023-03-11T09:42:04;5.70;95.20
46037;DHT22;31769;49.304;8.428;2023-03-11T09:45:32;5.70;95.90
46037;DHT22;31769;49.304;8.428;2023-03-11T09:48:44;5.80;94.50
46037;DHT22;31769;49.304;8.428;2023-03-11T09:51:56;5.90;93.40
46037;DHT22;31769;49.304;8.428;2023-03-11T09:54:59;5.90;92.90
46037;DHT22;31769;49.304;8.428;2023-03-11T09:58:08;6.10;93.00
46037;DHT22;31769;49.304;8.428;2023-03-11T10:01:17;6.20;92.40
46037;DHT22;31769;49.304;8.428;2023-03-11T10:07:32;6.50;91.80
46037;DHT22;31769;49.304;8.428;2023-03-11T10:10:40;6.30;91.40
46037;DHT22;31769;49.304;8.428;2023-03-11T10:14:00;6.30;90.30
46037;DHT22;31769;49.304;8.428;2023-03-11T10:20:29;6.50;90.50
46037;DHT22;31769;49.304;8.428;2023-03-11T10:27:20;7.00;86.80
46037;DHT22;31769;49.304;8.428;2023-03-11T10:30:40;7.20;87.80
46037;DHT22;31769;49.304;8.428;2023-03-11T10:33:46;7.20;86.40
46037;DHT22;31769;49.304;8.428;2023-03-11T10:36:58;7.40;86.00
46037;DHT22;31769;49.304;8.428;2023-03-11T10:40:23;7.20;81.00
46037;DHT22;31769;49.304;8.428;2023-03-11T10:43:39;6.90;81.10
46037;DHT22;31769;49.304;8.428;2023-03-11T10:46:41;6.70;81.40
46037;DHT22;31769;49.304;8.428;2023-03-11T10:49:41;6.70;80.30
46037;DHT22;31769;49.304;8.428;2023-03-11T10:53:03;6.50;81.70
46037;DHT22;31769;49.304;8.428;2023-03-11T10:56:04;6.50;82.00
46037;DHT22;31769;49.304;8.428;2023-03-11T11:05:33;7.30;79.60
46037;DHT22;31769;49.304;8.428;2023-03-11T11:08:34;7.30;79.70
46037;DHT22;31769;49.304;8.428;2023-03-11T11:11:34;7.40;77.70
46037;DHT22;31769;49.304;8.428;2023-03-11T11:14:50;7.20;75.70
46037;DHT22;31769;49.304;8.428;2023-03-11T11:17:52;7.20;77.10
46037;DHT22;31769;49.304;8.428;2023-03-11T11:21:31;7.50;77.10
46037;DHT22;31769;49.304;8.428;2023-03-11T11:24:32;7.70;76.00
46037;DHT22;31769;49.304;8.428;2023-03-11T11:27:33;7.70;76.70
46037;DHT22;31769;49.304;8.428;2023-03-11T11:30:34;8.20;73.70
46037;DHT22;31769;49.304;8.428;2023-03-11T11:33:39;8.10;71.50
46037;DHT22;31769;49.304;8.428;2023-03-11T11:36:48;8.00;70.00
46037;DHT22;31769;49.304;8.428;2023-03-11T11:39:56;8.20;68.90
46037;DHT22;31769;49.304;8.428;2023-03-11T11:43:04;8.40;69.80
46037;DHT22;31769;49.304;8.428;2023-03-11T11:46:11;8.70;67.50
46037;DHT22;31769;49.304;8.428;2023-03-11T11:52:29;9.10;66.10
46037;DHT22;31769;49.304;8.428;2023-03-11T11:55:32;9.70;66.30
46037;DHT22;31769;49.304;8.428;2023-03-11T11:58:33;10.40;64.00
46037;DHT22;31769;49.304;8.428;2023-03-11T12:01:39;10.80;60.50
46037;DHT22;31769;49.304;8.428;2023-03-11T12:08:20;13.00;57.30
46037;DHT22;31769;49.304;8.428;2023-03-11T12:11:43;12.90;55.10
46037;DHT22;31769;49.304;8.428;2023-03-11T12:15:04;11.60;56.50
46037;DHT22;31769;49.304;8.428;2023-03-11T12:18:21;13.00;55.90
46037;DHT22;31769;49.304;8.428;2023-03-11T12:24:38;19.70;49.30
46037;DHT22;31769;49.304;8.428;2023-03-11T12:27:46;22.00;41.00
46037;DHT22;31769;49.304;8.428;2023-03-11T12:30:55;23.10;38.40
46037;DHT22;31769;49.304;8.428;2023-03-11T12:34:02;24.40;36.80
46037;DHT22;31769;49.304;8.428;2023-03-11T12:37:12;25.80;36.30
46037;DHT22;31769;49.304;8.428;2023-03-11T12:49:56;27.70;33.00
46037;DHT22;31769;49.304;8.428;2023-03-11T12:53:16;28.80;32.00
46037;DHT22;31769;49.304;8.428;2023-03-11T12:56:43;29.90;31.40
46037;DHT22;31769;49.304;8.428;2023-03-11T12:59:56;30.10;32.00
46037;DHT22;31769;49.304;8.428;2023-03-11T13:10:51;31.40;29.60
46037;DHT22;31769;49.304;8.428;2023-03-11T13:17:25;31.20;30.10
46037;DHT22;31769;49.304;8.428;2023-03-11T13:23:42;27.50;31.50
46037;DHT22;31769;49.304;8.428;2023-03-11T13:27:02;27.80;31.60
46037;DHT22;31769;49.304;8.428;2023-03-11T13:30:15;29.90;30.00
46037;DHT22;31769;49.304;8.428;2023-03-11T13:33:43;30.40;29.90
46037;DHT22;31769;49.304;8.428;2023-03-11T13:37:11;31.90;30.60
46037;DHT22;31769;49.304;8.428;2023-03-11T13:40:37;30.20;30.00
46037;DHT22;31769;49.304;8.428;2023-03-11T13:43:44;26.20;33.20
46037;DHT22;31769;49.304;8.428;2023-03-11T13:46:52;23.90;34.10
46037;DHT22;31769;49.304;8.428;2023-03-11T13:50:16;23.00;36.70
46037;DHT22;31769;49.304;8.428;2023-03-11T13:53:27;22.60;36.00
46037;DHT22;31769;49.304;8.428;2023-03-11T13:56:36;22.30;35.10
46037;DHT22;31769;49.304;8.428;2023-03-11T13:59:38;20.80;36.20
46037;DHT22;31769;49.304;8.428;2023-03-11T14:02:44;19.70;38.20
46037;DHT22;31769;49.304;8.428;2023-03-11T14:05:48;18.90;38.70
46037;DHT22;31769;49.304;8.428;2023-03-11T14:08:54;18.50;40.30
46037;DHT22;31769;49.304;8.428;2023-03-11T14:12:03;19.20;38.90
46037;DHT22;31769;49.304;8.428;2023-03-11T14:15:06;18.80;40.10
46037;DHT22;31769;49.304;8.428;2023-03-11T14:21:46;16.60;42.80
46037;DHT22;31769;49.304;8.428;2023-03-11T14:24:47;16.00;42.90
46037;DHT22;31769;49.304;8.428;2023-03-11T14:27:54;15.10;44.90
46037;DHT22;31769;49.304;8.428;2023-03-11T14:30:58;14.50;45.80
46037;DHT22;31769;49.304;8.428;2023-03-11T14:34:17;14.70;45.80
46037;DHT22;31769;49.304;8.428;2023-03-11T14:40:34;15.50;45.10
46037;DHT22;31769;49.304;8.428;2023-03-11T14:43:45;15.70;44.30
46037;DHT22;31769;49.304;8.428;2023-03-11T14:46:49;14.10;45.50
46037;DHT22;31769;49.304;8.428;2023-03-11T14:49:51;12.90;47.90
46037;DHT22;31769;49.304;8.428;2023-03-11T14:56:11;11.40;50.10
46037;DHT22;31769;49.304;8.428;2023-03-11T14:59:17;11.40;51.00
46037;DHT22;31769;49.304;8.428;2023-03-11T15:05:54;10.80;52.10
46037;DHT22;31769;49.304;8.428;2023-03-11T15:08:57;10.30;52.70
46037;DHT22;31769;49.304;8.428;2023-03-11T15:12:01;9.80;54.00
46037;DHT22;31769;49.304;8.428;2023-03-11T15:15:02;9.40;55.00
46037;DHT22;31769;49.304;8.428;2023-03-11T15:18:14;9.10;55.60
46037;DHT22;31769;49.304;8.428;2023-03-11T15:21:18;8.90;55.80
46037;DHT22;31769;49.304;8.428;2023-03-11T15:24:22;8.90;56.60
46037;DHT22;31769;49.304;8.428;2023-03-11T15:27:37;8.90;56.50
46037;DHT22;31769;49.304;8.428;2023-03-11T15:30:38;8.70;57.20
46037;DHT22;31769;49.304;8.428;2023-03-11T15:33:39;8.80;57.80
46037;DHT22;31769;49.304;8.428;2023-03-11T15:36:44;8.80;57.70
46037;DHT22;31769;49.304;8.428;2023-03-11T15:43:26;9.50;56.50
46037;DHT22;31769;49.304;8.428;2023-03-11T15:46:27;9.80;56.00
46037;DHT22;31769;49.304;8.428;2023-03-11T15:49:28;9.80;56.20
46037;DHT22;31769;49.304;8.428;2023-03-11T15:52:29;9.30;56.70
46037;DHT22;31769;49.304;8.428;2023-03-11T15:55:30;8.80;57.90
46037;DHT22;31769;49.304;8.428;2023-03-11T15:58:30;8.70;58.40
46037;DHT22;31769;49.304;8.428;2023-03-11T16:01:31;8.80;59.20
46037;DHT22;31769;49.304;8.428;2023-03-11T16:04:32;8.90;59.50
46037;DHT22;31769;49.304;8.428;2023-03-11T16:07:32;8.90;58.60
46037;DHT22;31769;49.304;8.428;2023-03-11T16:10:34;9.00;59.20
46037;DHT22;31769;49.304;8.428;2023-03-11T16:13:34;8.90;59.30
46037;DHT22;31769;49.304;8.428;2023-03-11T16:16:35;8.80;60.00
46037;DHT22;31769;49.304;8.428;2023-03-11T16:19:36;8.80;59.90
46037;DHT22;31769;49.304;8.428;2023-03-11T16:22:37;8.90;60.10
46037;DHT22;31769;49.304;8.428;2023-03-11T16:25:38;9.70;58.80
46037;DHT22;31769;49.304;8.428;2023-03-11T16:28:40;11.20;55.80
46037;DHT22;31769;49.304;8.428;2023-03-11T16:31:41;11.90;54.00
46037;DHT22;31769;49.304;8.428;2023-03-11T16:34:42;12.60;52.60
46037;DHT22;31769;49.304;8.428;2023-03-11T16:37:43;12.30;53.30
46037;DHT22;31769;49.304;8.428;2023-03-11T16:40:44;12.90;52.00
46037;DHT22;31769;49.304;8.428;2023-03-11T16:43:44;12.50;52.20
46037;DHT22;31769;49.304;8.428;2023-03-11T16:46:45;11.50;54.30
46037;DHT22;31769;49.304;8.428;2023-03-11T16:49:46;10.30;56.40
46037;DHT22;31769;49.304;8.428;2023-03-11T16:52:51;9.60;57.50
46037;DHT22;31769;49.304;8.428;2023-03-11T16:55:52;9.10;59.50
46037;DHT22;31769;49.304;8.428;2023-03-11T16:58:53;8.20;61.70
46037;DHT22;31769;49.304;8.428;2023-03-11T17:01:53;8.30;61.80
46037;DHT22;31769;49.304;8.428;2023-03-11T17:04:54;8.30;61.70
46037;DHT22;31769;49.304;8.428;2023-03-11T17:07:56;8.90;61.60
46037;DHT22;31769;49.304;8.428;2023-03-11T17:11:00;9.10;60.90
46037;DHT22;31769;49.304;8.428;2023-03-11T17:14:01;8.80;60.90
46037;DHT22;31769;49.304;8.428;2023-03-11T17:17:01;8.10;63.00
46037;DHT22;31769;49.304;8.428;2023-03-11T17:20:03;7.60;64.90
46037;DHT22;31769;49.304;8.428;2023-03-11T17:23:06;7.20;66.40
46037;DHT22;31769;49.304;8.428;2023-03-11T17:26:13;6.90;67.70
46037;DHT22;31769;49.304;8.428;2023-03-11T17:29:14;6.60;71.40
46037;DHT22;31769;49.304;8.428;2023-03-11T17:32:15;6.10;72.10
46037;DHT22;31769;49.304;8.428;2023-03-11T17:35:19;5.90;74.80
46037;DHT22;31769;49.304;8.428;2023-03-11T17:38:20;5.70;77.10
46037;DHT22;31769;49.304;8.428;2023-03-11T17:41:24;5.60;79.10
46037;DHT22;31769;49.304;8.428;2023-03-11T17:44:25;5.70;80.40
46037;DHT22;31769;49.304;8.428;2023-03-11T17:47:25;5.50;82.90
46037;DHT22;31769;49.304;8.428;2023-03-11T17:50:26;5.30;85.60
46037;DHT22;31769;49.304;8.428;2023-03-11T17:53:27;5.20;88.00
46037;DHT22;31769;49.304;8.428;2023-03-11T17:56:27;5.20;89.20
46037;DHT22;31769;49.304;8.428;2023-03-11T17:59:28;5.20;90.20
46037;DHT22;31769;49.304;8.428;2023-03-11T18:02:29;5.10;90.40
46037;DHT22;31769;49.304;8.428;2023-03-11T18:05:30;5.20;90.80
46037;DHT22;31769;49.304;8.428;2023-03-11T18:08:32;5.20;91.60
46037;DHT22;31769;49.304;8.428;2023-03-11T18:11:32;5.10;91.70
46037;DHT22;31769;49.304;8.428;2023-03-11T18:14:33;5.10;92.30
46037;DHT22;31769;49.304;8.428;2023-03-11T18:17:35;5.50;92.50
46037;DHT22;31769;49.304;8.428;2023-03-11T18:20:36;5.10;92.50
46037;DHT22;31769;49.304;8.428;2023-03-11T18:23:38;5.00;93.00
46037;DHT22;31769;49.304;8.428;2023-03-11T18:26:38;5.00;93.70
46037;DHT22;31769;49.304;8.428;2023-03-11T18:29:39;5.00;94.30
46037;DHT22;31769;49.304;8.428;2023-03-11T18:32:40;5.00;95.10
46037;DHT22;31769;49.304;8.428;2023-03-11T18:35:40;4.90;95.90
46037;DHT22;31769;49.304;8.428;2023-03-11T18:38:41;4.90;96.40
46037;DHT22;31769;49.304;8.428;2023-03-11T18:41:42;4.80;97.90
46037;DHT22;31769;49.304;8.428;2023-03-11T18:44:43;4.80;99.30
46037;DHT22;31769;49.304;8.428;2023-03-11T18:47:44;4.80;99.90
46037;DHT22;31769;49.304;8.428;2023-03-11T18:50:50;4.90;99.90
46037;DHT22;31769;49.304;8.428;2023-03-11T18:53:51;4.80;99.90
46037;DHT22;31769;49.304;8.428;2023-03-11T18:56:52;4.80;99.60
46037;DHT22;31769;49.304;8.428;2023-03-11T18:59:52;4.70;99.90
46037;DHT22;31769;49.304;8.428;2023-03-11T19:02:53;4.60;99.90
46037;DHT22;31769;49.304;8.428;2023-03-11T19:05:54;4.60;99.90
46037;DHT22;31769;49.304;8.428;2023-03-11T19:08:54;4.60;99.90
46037;DHT22;31769;49.304;8.428;2023-03-11T19:11:57;4.50;99.90
46037;DHT22;31769;49.304;8.428;2023-03-11T19:14:57;4.40;99.90
46037;DHT22;31769;49.304;8.428;2023-03-11T19:17:58;4.50;99.90
46037;DHT22;31769;49.304;8.428;2023-03-11T19:21:01;4.40;99.90
46037;DHT22;31769;49.304;8.428;2023-03-11T19:24:03;4.40;99.90
46037;DHT22;31769;49.304;8.428;2023-03-11T19:27:04;4.30;99.90
46037;DHT22;31769;49.304;8.428;2023-03-11T19:30:06;4.30;99.90
46037;DHT22;31769;49.304;8.428;2023-03-11T19:33:07;5.80;99.90
46037;DHT22;31769;49.304;8.428;2023-03-11T19:36:09;3.90;99.90
46037;DHT22;31769;49.304;8.428;2023-03-11T19:39:10;4.60;99.90
46037;DHT22;31769;49.304;8.428;2023-03-11T19:42:11;4.20;99.90
46037;DHT22;31769;49.304;8.428;2023-03-11T19:45:12;4.20;99.90
46037;DHT22;31769;49.304;8.428;2023-03-11T19:48:12;3.90;99.90
46037;DHT22;31769;49.304;8.428;2023-03-11T19:51:13;3.70;99.90
46037;DHT22;31769;49.304;8.428;2023-03-11T19:54:14;3.70;99.90
46037;DHT22;31769;49.304;8.428;2023-03-11T19:57:15;3.70;99.90
46037;DHT22;31769;49.304;8.428;2023-03-11T20:00:16;3.60;99.90
46037;DHT22;31769;49.304;8.428;2023-03-11T20:03:18;3.60;99.90
46037;DHT22;31769;49.304;8.428;2023-03-11T20:06:19;3.50;99.90
46037;DHT22;31769;49.304;8.428;2023-03-11T20:09:22;3.50;99.90
46037;DHT22;31769;49.304;8.428;2023-03-11T20:12:22;3.40;99.90
46037;DHT22;31769;49.304;8.428;2023-03-11T20:15:23;3.40;99.90
46037;DHT22;31769;49.304;8.428;2023-03-11T20:18:23;3.70;99.90
46037;DHT22;31769;49.304;8.428;2023-03-11T20:21:24;3.30;99.90
46037;DHT22;31769;49.304;8.428;2023-03-11T20:24:25;3.40;99.90
46037;DHT22;31769;49.304;8.428;2023-03-11T20:27:26;3.30;99.90
46037;DHT22;31769;49.304;8.428;2023-03-11T20:30:27;3.80;99.90
46037;DHT22;31769;49.304;8.428;2023-03-11T20:33:28;3.90;99.90
46037;DHT22;31769;49.304;8.428;2023-03-11T20:36:30;3.30;99.90
46037;DHT22;31769;49.304;8.428;2023-03-11T20:39:32;3.20;99.90
46037;DHT22;31769;49.304;8.428;2023-03-11T20:42:33;3.10;99.90
46037;DHT22;31769;49.304;8.428;2023-03-11T20:45:33;2.90;99.90
46037;DHT22;31769;49.304;8.428;2023-03-11T20:48:35;2.70;99.90